sensor_id;sensor_type;location;lat;lon;timestamp;P1;P2;P0
74333;PMS5003;62753;40.394;-80.022;2023-10-19T00:00:56;12;11;
74333;PMS5003;62753;40.394;-80.022;2023-10-19T00:03:21;17;14;
74333;PMS5003;62753;40.394;-80.022;2023-10-19T00:05:47;15;15;
74333;PMS5003;62753;40.394;-80.022;2023-10-19T00:08:12;15;14;
74333;PMS5003;62753;40.394;-80.022;2023-10-19T00:10:37;18;17;
74333;PMS5003;62753;40.394;-80.022;2023-10-19T00:13:03;18;15;
74333;PMS5003;62753;40.394;-80.022;2023-10-19T00:15:28;17;15;
74333;PMS5003;62753;40.394;-80.022;2023-10-19T00:17:53;15;13;
74333;PMS5003;62753;40.394;-80.022;2023-10-19T00:20:18;16;15;
74333;PMS5003;62753;40.394;-80.022;2023-10-19T00:22:44;15;13;
74333;PMS5003;62753;40.394;-80.022;2023-10-19T00:25:09;17;15;
74333;PMS5003;62753;40.394;-80.022;2023-10-19T00:27:34;21;17;
74333;PMS5003;62753;40.394;-80.022;2023-10-19T00:29:59;16;15;
74333;PMS5003;62753;40.394;-80.022;2023-10-19T00:32:24;19;17;
74333;PMS5003;62753;40.394;-80.022;2023-10-19T00:34:50;17;15;
74333;PMS5003;62753;40.394;-80.022;2023-10-19T00:37:15;15;15;
74333;PMS5003;62753;40.394;-80.022;2023-10-19T00:39:40;18;15;
74333;PMS5003;62753;40.394;-80.022;2023-10-19T00:42:05;19;17;
74333;PMS5003;62753;40.394;-80.022;2023-10-19T00:44:30;18;17;
74333;PMS5003;62753;40.394;-80.022;2023-10-19T00:46:55;16;16;
74333;PMS5003;62753;40.394;-80.022;2023-10-19T00:49:21;18;18;
74333;PMS5003;62753;40.394;-80.022;2023-10-19T00:51:47;16;16;
74333;PMS5003;62753;40.394;-80.022;2023-10-19T00:54:12;17;17;
74333;PMS5003;62753;40.394;-80.022;2023-10-19T00:56:37;15;15;
74333;PMS5003;62753;40.394;-80.022;2023-10-19T00:59:02;19;18;
74333;PMS5003;62753;40.394;-80.022;2023-10-19T01:01:28;21;19;
74333;PMS5003;62753;40.394;-80.022;2023-10-19T01:03:53;16;16;
74333;PMS5003;62753;40.394;-80.022;2023-10-19T01:06:19;19;17;
74333;PMS5003;62753;40.394;-80.022;2023-10-19T01:08:43;18;15;
74333;PMS5003;62753;40.394;-80.022;2023-10-19T01:11:09;19;18;
74333;PMS5003;62753;40.394;-80.022;2023-10-19T01:13:34;17;16;
74333;PMS5003;62753;40.394;-80.022;2023-10-19T01:16:00;15;14;
74333;PMS5003;62753;40.394;-80.022;2023-10-19T01:18:25;22;18;
74333;PMS5003;62753;40.394;-80.022;2023-10-19T01:20:51;19;18;
74333;PMS5003;62753;40.394;-80.022;2023-10-19T01:23:16;17;17;
74333;PMS5003;62753;40.394;-80.022;2023-10-19T01:25:42;18;17;
74333;PMS5003;62753;40.394;-80.022;2023-10-19T01:28:08;19;17;
74333;PMS5003;62753;40.394;-80.022;2023-10-19T01:30:33;18;17;
74333;PMS5003;62753;40.394;-80.022;2023-10-19T01:32:59;19;18;
74333;PMS5003;62753;40.394;-80.022;2023-10-19T01:35:24;17;14;
74333;PMS5003;62753;40.394;-80.022;2023-10-19T01:37:50;21;18;
74333;PMS5003;62753;40.394;-80.022;2023-10-19T01:40:15;17;17;
74333;PMS5003;62753;40.394;-80.022;2023-10-19T01:42:40;21;19;
74333;PMS5003;62753;40.394;-80.022;2023-10-19T01:45:06;17;16;
74333;PMS5003;62753;40.394;-80.022;2023-10-19T01:47:31;28;20;
74333;PMS5003;62753;40.394;-80.022;2023-10-19T01:49:56;22;19;
74333;PMS5003;62753;40.394;-80.022;2023-10-19T01:52:22;24;16;
74333;PMS5003;62753;40.394;-80.022;2023-10-19T01:54:48;20;15;
74333;PMS5003;62753;40.394;-80.022;2023-10-19T01:57:13;17;17;
74333;PMS5003;62753;40.394;-80.022;2023-10-19T01:59:39;18;16;
74333;PMS5003;62753;40.394;-80.022;2023-10-19T02:02:04;21;19;
74333;PMS5003;62753;40.394;-80.022;2023-10-19T02:04:29;21;19;
74333;PMS5003;62753;40.394;-80.022;2023-10-19T02:06:55;18;17;
74333;PMS5003;62753;40.394;-80.022;2023-10-19T02:09:21;20;18;
74333;PMS5003;62753;40.394;-80.022;2023-10-19T02:11:46;19;18;
74333;PMS5003;62753;40.394;-80.022;2023-10-19T02:14:11;25;19;
74333;PMS5003;62753;40.394;-80.022;2023-10-19T02:16:37;19;17;
74333;PMS5003;62753;40.394;-80.022;2023-10-19T02:19:02;18;18;
74333;PMS5003;62753;40.394;-80.022;2023-10-19T02:21:28;22;18;
74333;PMS5003;62753;40.394;-80.022;2023-10-19T02:23:53;19;16;
74333;PMS5003;62753;40.394;-80.022;2023-10-19T02:26:19;19;18;
74333;PMS5003;62753;40.394;-80.022;2023-10-19T02:28:44;25;19;
74333;PMS5003;62753;40.394;-80.022;2023-10-19T02:31:09;22;19;
74333;PMS5003;62753;40.394;-80.022;2023-10-19T02:33:35;16;16;
74333;PMS5003;62753;40.394;-80.022;2023-10-19T02:36:00;23;22;
74333;PMS5003;62753;40.394;-80.022;2023-10-19T02:38:25;21;20;
74333;PMS5003;62753;40.394;-80.022;2023-10-19T02:40:51;26;21;
74333;PMS5003;62753;40.394;-80.022;2023-10-19T02:43:16;28;26;
74333;PMS5003;62753;40.394;-80.022;2023-10-19T02:45:42;25;21;
74333;PMS5003;62753;40.394;-80.022;2023-10-19T02:48:07;23;22;
74333;PMS5003;62753;40.394;-80.022;2023-10-19T02:50:33;27;25;
74333;PMS5003;62753;40.394;-80.022;2023-10-19T02:52:58;27;24;
74333;PMS5003;62753;40.394;-80.022;2023-10-19T02:55:23;32;26;
74333;PMS5003;62753;40.394;-80.022;2023-10-19T02:57:49;24;20;
74333;PMS5003;62753;40.394;-80.022;2023-10-19T03:00:15;24;22;
74333;PMS5003;62753;40.394;-80.022;2023-10-19T03:02:40;24;22;
74333;PMS5003;62753;40.394;-80.022;2023-10-19T03:05:05;25;24;
74333;PMS5003;62753;40.394;-80.022;2023-10-19T03:07:31;21;20;
74333;PMS5003;62753;40.394;-80.022;2023-10-19T03:09:57;19;18;
74333;PMS5003;62753;40.394;-80.022;2023-10-19T03:12:22;21;19;
74333;PMS5003;62753;40.394;-80.022;2023-10-19T03:14:47;20;19;
74333;PMS5003;62753;40.394;-80.022;2023-10-19T03:17:13;16;15;
74333;PMS5003;62753;40.394;-80.022;2023-10-19T03:19:38;14;14;
74333;PMS5003;62753;40.394;-80.022;2023-10-19T03:22:03;24;16;
74333;PMS5003;62753;40.394;-80.022;2023-10-19T03:24:28;20;19;
74333;PMS5003;62753;40.394;-80.022;2023-10-19T03:26:53;21;20;
74333;PMS5003;62753;40.394;-80.022;2023-10-19T03:29:19;24;22;
74333;PMS5003;62753;40.394;-80.022;2023-10-19T03:31:44;23;22;
74333;PMS5003;62753;40.394;-80.022;2023-10-19T03:34:09;24;22;
74333;PMS5003;62753;40.394;-80.022;2023-10-19T03:36:34;23;21;
74333;PMS5003;62753;40.394;-80.022;2023-10-19T03:39:00;23;21;
74333;PMS5003;62753;40.394;-80.022;2023-10-19T03:41:25;23;21;
74333;PMS5003;62753;40.394;-80.022;2023-10-19T03:43:51;22;20;
74333;PMS5003;62753;40.394;-80.022;2023-10-19T03:46:16;22;22;
74333;PMS5003;62753;40.394;-80.022;2023-10-19T03:48:41;24;22;
74333;PMS5003;62753;40.394;-80.022;2023-10-19T03:51:06;22;21;
74333;PMS5003;62753;40.394;-80.022;2023-10-19T03:53:32;24;23;
74333;PMS5003;62753;40.394;-80.022;2023-10-19T03:55:57;22;19;
74333;PMS5003;62753;40.394;-80.022;2023-10-19T03:58:23;21;20;
74333;PMS5003;62753;40.394;-80.022;2023-10-19T04:00:48;23;20;
74333;PMS5003;62753;40.394;-80.022;2023-10-19T04:03:13;24;20;
74333;PMS5003;62753;40.394;-80.022;2023-10-19T04:05:39;23;22;
74333;PMS5003;62753;40.394;-80.022;2023-10-19T04:08:05;20;20;
74333;PMS5003;62753;40.394;-80.022;2023-10-19T04:10:30;29;25;
74333;PMS5003;62753;40.394;-80.022;2023-10-19T04:12:56;21;20;
74333;PMS5003;62753;40.394;-80.022;2023-10-19T04:15:21;23;21;
74333;PMS5003;62753;40.394;-80.022;2023-10-19T04:17:48;24;21;
74333;PMS5003;62753;40.394;-80.022;2023-10-19T04:20:12;21;19;
74333;PMS5003;62753;40.394;-80.022;2023-10-19T04:22:37;27;21;
74333;PMS5003;62753;40.394;-80.022;2023-10-19T04:25:02;21;18;
74333;PMS5003;62753;40.394;-80.022;2023-10-19T04:27:28;25;23;
74333;PMS5003;62753;40.394;-80.022;2023-10-19T04:29:53;26;19;
74333;PMS5003;62753;40.394;-80.022;2023-10-19T04:32:19;24;24;
74333;PMS5003;62753;40.394;-80.022;2023-10-19T04:34:45;22;22;
74333;PMS5003;62753;40.394;-80.022;2023-10-19T04:37:10;26;22;
74333;PMS5003;62753;40.394;-80.022;2023-10-19T04:39:36;27;23;
74333;PMS5003;62753;40.394;-80.022;2023-10-19T04:42:01;25;22;
74333;PMS5003;62753;40.394;-80.022;2023-10-19T04:44:27;20;19;
74333;PMS5003;62753;40.394;-80.022;2023-10-19T04:46:52;18;18;
74333;PMS5003;62753;40.394;-80.022;2023-10-19T04:49:18;21;19;
74333;PMS5003;62753;40.394;-80.022;2023-10-19T04:51:43;21;20;
74333;PMS5003;62753;40.394;-80.022;2023-10-19T04:54:08;19;18;
74333;PMS5003;62753;40.394;-80.022;2023-10-19T04:56:34;22;20;
74333;PMS5003;62753;40.394;-80.022;2023-10-19T04:58:59;21;19;
74333;PMS5003;62753;40.394;-80.022;2023-10-19T05:01:24;22;20;
74333;PMS5003;62753;40.394;-80.022;2023-10-19T05:03:50;18;16;
74333;PMS5003;62753;40.394;-80.022;2023-10-19T05:06:15;21;19;
74333;PMS5003;62753;40.394;-80.022;2023-10-19T05:08:40;18;18;
74333;PMS5003;62753;40.394;-80.022;2023-10-19T05:11:06;16;16;
74333;PMS5003;62753;40.394;-80.022;2023-10-19T05:13:31;20;17;
74333;PMS5003;62753;40.394;-80.022;2023-10-19T05:15:56;18;18;
74333;PMS5003;62753;40.394;-80.022;2023-10-19T05:18:22;17;17;
74333;PMS5003;62753;40.394;-80.022;2023-10-19T05:20:47;18;18;
74333;PMS5003;62753;40.394;-80.022;2023-10-19T05:23:12;22;19;
74333;PMS5003;62753;40.394;-80.022;2023-10-19T05:25:37;22;18;
74333;PMS5003;62753;40.394;-80.022;2023-10-19T05:28:04;19;18;
74333;PMS5003;62753;40.394;-80.022;2023-10-19T05:30:28;17;16;
74333;PMS5003;62753;40.394;-80.022;2023-10-19T05:32:54;20;20;
74333;PMS5003;62753;40.394;-80.022;2023-10-19T05:35:20;22;19;
74333;PMS5003;62753;40.394;-80.022;2023-10-19T05:37:45;23;18;
74333;PMS5003;62753;40.394;-80.022;2023-10-19T05:40:11;23;19;
74333;PMS5003;62753;40.394;-80.022;2023-10-19T05:42:36;24;21;
74333;PMS5003;62753;40.394;-80.022;2023-10-19T05:45:02;16;15;
74333;PMS5003;62753;40.394;-80.022;2023-10-19T05:47:27;16;15;
74333;PMS5003;62753;40.394;-80.022;2023-10-19T05:49:53;19;17;
74333;PMS5003;62753;40.394;-80.022;2023-10-19T05:52:18;18;18;
74333;PMS5003;62753;40.394;-80.022;2023-10-19T05:54:44;25;18;
74333;PMS5003;62753;40.394;-80.022;2023-10-19T05:57:08;20;18;
74333;PMS5003;62753;40.394;-80.022;2023-10-19T05:59:34;20;19;
74333;PMS5003;62753;40.394;-80.022;2023-10-19T06:02:00;21;18;
74333;PMS5003;62753;40.394;-80.022;2023-10-19T06:04:26;28;23;
74333;PMS5003;62753;40.394;-80.022;2023-10-19T06:06:51;19;19;
74333;PMS5003;62753;40.394;-80.022;2023-10-19T06:09:16;26;22;
74333;PMS5003;62753;40.394;-80.022;2023-10-19T06:11:42;20;19;
74333;PMS5003;62753;40.394;-80.022;2023-10-19T06:14:07;21;21;
74333;PMS5003;62753;40.394;-80.022;2023-10-19T06:16:33;19;16;
74333;PMS5003;62753;40.394;-80.022;2023-10-19T06:18:58;21;19;
74333;PMS5003;62753;40.394;-80.022;2023-10-19T06:21:23;19;18;
74333;PMS5003;62753;40.394;-80.022;2023-10-19T06:23:48;19;19;
74333;PMS5003;62753;40.394;-80.022;2023-10-19T06:26:13;19;18;
74333;PMS5003;62753;40.394;-80.022;2023-10-19T06:28:38;22;19;
74333;PMS5003;62753;40.394;-80.022;2023-10-19T06:31:04;19;18;
74333;PMS5003;62753;40.394;-80.022;2023-10-19T06:33:29;21;18;
74333;PMS5003;62753;40.394;-80.022;2023-10-19T06:35:55;19;18;
74333;PMS5003;62753;40.394;-80.022;2023-10-19T06:38:20;19;18;
74333;PMS5003;62753;40.394;-80.022;2023-10-19T06:40:45;16;16;
74333;PMS5003;62753;40.394;-80.022;2023-10-19T06:43:11;23;19;
74333;PMS5003;62753;40.394;-80.022;2023-10-19T06:45:37;19;18;
74333;PMS5003;62753;40.394;-80.022;2023-10-19T06:48:02;20;20;
74333;PMS5003;62753;40.394;-80.022;2023-10-19T06:50:28;23;20;
74333;PMS5003;62753;40.394;-80.022;2023-10-19T06:52:53;23;19;
74333;PMS5003;62753;40.394;-80.022;2023-10-19T06:55:18;20;18;
74333;PMS5003;62753;40.394;-80.022;2023-10-19T06:57:45;20;18;
74333;PMS5003;62753;40.394;-80.022;2023-10-19T07:00:11;24;19;
74333;PMS5003;62753;40.394;-80.022;2023-10-19T07:02:35;24;22;
74333;PMS5003;62753;40.394;-80.022;2023-10-19T07:05:06;21;17;
74333;PMS5003;62753;40.394;-80.022;2023-10-19T07:07:26;22;20;
74333;PMS5003;62753;40.394;-80.022;2023-10-19T07:09:51;22;20;
74333;PMS5003;62753;40.394;-80.022;2023-10-19T07:12:16;23;21;
74333;PMS5003;62753;40.394;-80.022;2023-10-19T07:14:42;22;21;
74333;PMS5003;62753;40.394;-80.022;2023-10-19T07:17:07;20;19;
74333;PMS5003;62753;40.394;-80.022;2023-10-19T07:19:32;21;19;
74333;PMS5003;62753;40.394;-80.022;2023-10-19T07:21:58;23;21;
74333;PMS5003;62753;40.394;-80.022;2023-10-19T07:24:23;26;19;
74333;PMS5003;62753;40.394;-80.022;2023-10-19T07:26:49;22;20;
74333;PMS5003;62753;40.394;-80.022;2023-10-19T07:29:14;26;23;
74333;PMS5003;62753;40.394;-80.022;2023-10-19T07:31:39;20;19;
74333;PMS5003;62753;40.394;-80.022;2023-10-19T07:34:05;20;18;
74333;PMS5003;62753;40.394;-80.022;2023-10-19T07:36:31;19;18;
74333;PMS5003;62753;40.394;-80.022;2023-10-19T07:38:56;21;20;
74333;PMS5003;62753;40.394;-80.022;2023-10-19T07:41:22;17;16;
74333;PMS5003;62753;40.394;-80.022;2023-10-19T07:43:47;19;17;
74333;PMS5003;62753;40.394;-80.022;2023-10-19T07:46:12;22;20;
74333;PMS5003;62753;40.394;-80.022;2023-10-19T07:48:37;21;20;
74333;PMS5003;62753;40.394;-80.022;2023-10-19T07:51:03;16;16;
74333;PMS5003;62753;40.394;-80.022;2023-10-19T07:53:28;27;21;
74333;PMS5003;62753;40.394;-80.022;2023-10-19T07:55:54;15;14;
74333;PMS5003;62753;40.394;-80.022;2023-10-19T07:58:19;21;19;
74333;PMS5003;62753;40.394;-80.022;2023-10-19T08:00:44;24;20;
74333;PMS5003;62753;40.394;-80.022;2023-10-19T08:03:10;14;13;
74333;PMS5003;62753;40.394;-80.022;2023-10-19T08:05:35;23;18;
74333;PMS5003;62753;40.394;-80.022;2023-10-19T08:08:00;18;17;
74333;PMS5003;62753;40.394;-80.022;2023-10-19T08:10:26;16;16;
74333;PMS5003;62753;40.394;-80.022;2023-10-19T08:12:51;16;15;
74333;PMS5003;62753;40.394;-80.022;2023-10-19T08:15:17;20;19;
74333;PMS5003;62753;40.394;-80.022;2023-10-19T08:17:42;17;15;
74333;PMS5003;62753;40.394;-80.022;2023-10-19T08:20:08;18;16;
74333;PMS5003;62753;40.394;-80.022;2023-10-19T08:22:33;21;16;
74333;PMS5003;62753;40.394;-80.022;2023-10-19T08:24:58;16;14;
74333;PMS5003;62753;40.394;-80.022;2023-10-19T08:27:24;19;17;
74333;PMS5003;62753;40.394;-80.022;2023-10-19T08:29:49;18;17;
74333;PMS5003;62753;40.394;-80.022;2023-10-19T08:32:15;24;18;
74333;PMS5003;62753;40.394;-80.022;2023-10-19T08:34:40;16;15;
74333;PMS5003;62753;40.394;-80.022;2023-10-19T08:37:06;19;16;
74333;PMS5003;62753;40.394;-80.022;2023-10-19T08:39:31;18;16;
74333;PMS5003;62753;40.394;-80.022;2023-10-19T08:41:56;16;12;
74333;PMS5003;62753;40.394;-80.022;2023-10-19T08:44:21;16;15;
74333;PMS5003;62753;40.394;-80.022;2023-10-19T08:46:47;15;14;
74333;PMS5003;62753;40.394;-80.022;2023-10-19T08:49:12;20;18;
74333;PMS5003;62753;40.394;-80.022;2023-10-19T08:51:37;16;15;
74333;PMS5003;62753;40.394;-80.022;2023-10-19T08:54:02;18;18;
74333;PMS5003;62753;40.394;-80.022;2023-10-19T08:56:27;18;17;
74333;PMS5003;62753;40.394;-80.022;2023-10-19T08:58:53;17;16;
74333;PMS5003;62753;40.394;-80.022;2023-10-19T09:01:18;20;19;
74333;PMS5003;62753;40.394;-80.022;2023-10-19T09:03:44;16;16;
74333;PMS5003;62753;40.394;-80.022;2023-10-19T09:06:11;22;20;
74333;PMS5003;62753;40.394;-80.022;2023-10-19T09:08:34;21;17;
74333;PMS5003;62753;40.394;-80.022;2023-10-19T09:11:02;18;16;
74333;PMS5003;62753;40.394;-80.022;2023-10-19T09:13:25;14;14;
74333;PMS5003;62753;40.394;-80.022;2023-10-19T09:15:50;14;14;
74333;PMS5003;62753;40.394;-80.022;2023-10-19T09:18:16;21;17;
74333;PMS5003;62753;40.394;-80.022;2023-10-19T09:20:41;16;15;
74333;PMS5003;62753;40.394;-80.022;2023-10-19T09:23:06;18;17;
74333;PMS5003;62753;40.394;-80.022;2023-10-19T09:25:31;19;17;
74333;PMS5003;62753;40.394;-80.022;2023-10-19T09:27:56;23;19;
74333;PMS5003;62753;40.394;-80.022;2023-10-19T09:30:22;20;16;
74333;PMS5003;62753;40.394;-80.022;2023-10-19T09:32:48;21;19;
74333;PMS5003;62753;40.394;-80.022;2023-10-19T09:35:14;22;18;
74333;PMS5003;62753;40.394;-80.022;2023-10-19T09:37:39;17;16;
74333;PMS5003;62753;40.394;-80.022;2023-10-19T09:40:05;22;18;
74333;PMS5003;62753;40.394;-80.022;2023-10-19T09:42:30;20;19;
74333;PMS5003;62753;40.394;-80.022;2023-10-19T09:44:58;19;18;
74333;PMS5003;62753;40.394;-80.022;2023-10-19T09:47:26;19;19;
74333;PMS5003;62753;40.394;-80.022;2023-10-19T09:49:46;18;16;
74333;PMS5003;62753;40.394;-80.022;2023-10-19T09:52:11;19;19;
74333;PMS5003;62753;40.394;-80.022;2023-10-19T09:54:44;19;19;
74333;PMS5003;62753;40.394;-80.022;2023-10-19T09:57:03;20;18;
74333;PMS5003;62753;40.394;-80.022;2023-10-19T09:59:30;21;18;
74333;PMS5003;62753;40.394;-80.022;2023-10-19T10:09:09;23;20;
74333;PMS5003;62753;40.394;-80.022;2023-10-19T10:11:34;18;17;
74333;PMS5003;62753;40.394;-80.022;2023-10-19T10:13:59;22;19;
74333;PMS5003;62753;40.394;-80.022;2023-10-19T10:16:25;19;17;
74333;PMS5003;62753;40.394;-80.022;2023-10-19T10:18:50;22;17;
74333;PMS5003;62753;40.394;-80.022;2023-10-19T10:21:17;21;17;
74333;PMS5003;62753;40.394;-80.022;2023-10-19T10:23:41;20;19;
74333;PMS5003;62753;40.394;-80.022;2023-10-19T10:26:06;18;16;
74333;PMS5003;62753;40.394;-80.022;2023-10-19T10:28:32;20;19;
74333;PMS5003;62753;40.394;-80.022;2023-10-19T10:35:53;19;18;
74333;PMS5003;62753;40.394;-80.022;2023-10-19T10:38:13;27;23;
74333;PMS5003;62753;40.394;-80.022;2023-10-19T10:40:42;21;18;
74333;PMS5003;62753;40.394;-80.022;2023-10-19T10:43:04;21;18;
74333;PMS5003;62753;40.394;-80.022;2023-10-19T10:45:29;19;18;
74333;PMS5003;62753;40.394;-80.022;2023-10-19T10:47:54;21;20;
74333;PMS5003;62753;40.394;-80.022;2023-10-19T10:50:19;24;22;
74333;PMS5003;62753;40.394;-80.022;2023-10-19T10:52:45;27;22;
74333;PMS5003;62753;40.394;-80.022;2023-10-19T10:55:11;18;18;
74333;PMS5003;62753;40.394;-80.022;2023-10-19T10:57:36;22;20;
74333;PMS5003;62753;40.394;-80.022;2023-10-19T11:00:05;20;19;
74333;PMS5003;62753;40.394;-80.022;2023-10-19T11:02:26;19;17;
74333;PMS5003;62753;40.394;-80.022;2023-10-19T11:04:52;24;18;
74333;PMS5003;62753;40.394;-80.022;2023-10-19T11:07:17;22;17;
74333;PMS5003;62753;40.394;-80.022;2023-10-19T11:09:43;18;17;
74333;PMS5003;62753;40.394;-80.022;2023-10-19T11:12:10;17;16;
74333;PMS5003;62753;40.394;-80.022;2023-10-19T11:14:34;17;17;
74333;PMS5003;62753;40.394;-80.022;2023-10-19T11:21:52;19;18;
74333;PMS5003;62753;40.394;-80.022;2023-10-19T11:26:40;21;16;
74333;PMS5003;62753;40.394;-80.022;2023-10-19T11:29:05;17;15;
74333;PMS5003;62753;40.394;-80.022;2023-10-19T11:31:31;16;16;
74333;PMS5003;62753;40.394;-80.022;2023-10-19T11:33:56;16;15;
74333;PMS5003;62753;40.394;-80.022;2023-10-19T11:36:22;22;17;
74333;PMS5003;62753;40.394;-80.022;2023-10-19T11:38:47;17;16;
74333;PMS5003;62753;40.394;-80.022;2023-10-19T11:41:12;16;15;
74333;PMS5003;62753;40.394;-80.022;2023-10-19T11:43:37;16;14;
74333;PMS5003;62753;40.394;-80.022;2023-10-19T11:46:02;19;15;
74333;PMS5003;62753;40.394;-80.022;2023-10-19T11:48:28;16;15;
74333;PMS5003;62753;40.394;-80.022;2023-10-19T11:50:53;14;13;
74333;PMS5003;62753;40.394;-80.022;2023-10-19T11:53:18;15;12;
74333;PMS5003;62753;40.394;-80.022;2023-10-19T11:55:43;15;14;
74333;PMS5003;62753;40.394;-80.022;2023-10-19T11:58:09;15;13;
74333;PMS5003;62753;40.394;-80.022;2023-10-19T12:00:34;14;14;
74333;PMS5003;62753;40.394;-80.022;2023-10-19T12:03:00;17;16;
74333;PMS5003;62753;40.394;-80.022;2023-10-19T12:05:26;20;16;
74333;PMS5003;62753;40.394;-80.022;2023-10-19T12:07:51;12;11;
74333;PMS5003;62753;40.394;-80.022;2023-10-19T12:10:16;17;15;
74333;PMS5003;62753;40.394;-80.022;2023-10-19T12:12:42;13;12;
74333;PMS5003;62753;40.394;-80.022;2023-10-19T12:15:08;13;12;
74333;PMS5003;62753;40.394;-80.022;2023-10-19T12:17:32;11;11;
74333;PMS5003;62753;40.394;-80.022;2023-10-19T12:19:58;12;12;
74333;PMS5003;62753;40.394;-80.022;2023-10-19T12:22:23;11;11;
74333;PMS5003;62753;40.394;-80.022;2023-10-19T12:24:49;12;11;
74333;PMS5003;62753;40.394;-80.022;2023-10-19T12:27:14;11;11;
74333;PMS5003;62753;40.394;-80.022;2023-10-19T12:29:40;9;9;
74333;PMS5003;62753;40.394;-80.022;2023-10-19T12:32:05;11;11;
74333;PMS5003;62753;40.394;-80.022;2023-10-19T12:34:30;12;11;
74333;PMS5003;62753;40.394;-80.022;2023-10-19T12:36:56;10;10;
74333;PMS5003;62753;40.394;-80.022;2023-10-19T12:39:21;12;11;
74333;PMS5003;62753;40.394;-80.022;2023-10-19T12:41:47;13;9;
74333;PMS5003;62753;40.394;-80.022;2023-10-19T12:44:12;11;11;
74333;PMS5003;62753;40.394;-80.022;2023-10-19T12:46:37;13;13;
74333;PMS5003;62753;40.394;-80.022;2023-10-19T12:49:04;10;9;
74333;PMS5003;62753;40.394;-80.022;2023-10-19T12:51:28;10;9;
74333;PMS5003;62753;40.394;-80.022;2023-10-19T12:53:54;8;8;
74333;PMS5003;62753;40.394;-80.022;2023-10-19T12:56:18;12;11;
74333;PMS5003;62753;40.394;-80.022;2023-10-19T12:58:43;7;7;
74333;PMS5003;62753;40.394;-80.022;2023-10-19T13:01:09;10;10;
74333;PMS5003;62753;40.394;-80.022;2023-10-19T13:03:34;9;9;
74333;PMS5003;62753;40.394;-80.022;2023-10-19T13:05:59;11;10;
74333;PMS5003;62753;40.394;-80.022;2023-10-19T13:08:25;7;7;
74333;PMS5003;62753;40.394;-80.022;2023-10-19T13:10:51;9;9;
74333;PMS5003;62753;40.394;-80.022;2023-10-19T13:13:15;10;9;
74333;PMS5003;62753;40.394;-80.022;2023-10-19T13:15:41;9;9;
74333;PMS5003;62753;40.394;-80.022;2023-10-19T13:18:07;13;12;
74333;PMS5003;62753;40.394;-80.022;2023-10-19T13:20:31;8;7;
74333;PMS5003;62753;40.394;-80.022;2023-10-19T13:22:56;11;10;
74333;PMS5003;62753;40.394;-80.022;2023-10-19T13:25:21;8;8;
74333;PMS5003;62753;40.394;-80.022;2023-10-19T13:27:46;10;9;
74333;PMS5003;62753;40.394;-80.022;2023-10-19T13:30:12;11;10;
74333;PMS5003;62753;40.394;-80.022;2023-10-19T13:32:37;10;9;
74333;PMS5003;62753;40.394;-80.022;2023-10-19T13:35:02;11;10;
74333;PMS5003;62753;40.394;-80.022;2023-10-19T13:37:27;9;8;
74333;PMS5003;62753;40.394;-80.022;2023-10-19T13:39:53;10;10;
74333;PMS5003;62753;40.394;-80.022;2023-10-19T13:42:18;8;8;
74333;PMS5003;62753;40.394;-80.022;2023-10-19T13:44:44;9;9;
74333;PMS5003;62753;40.394;-80.022;2023-10-19T13:47:09;11;8;
74333;PMS5003;62753;40.394;-80.022;2023-10-19T13:49:34;9;8;
74333;PMS5003;62753;40.394;-80.022;2023-10-19T13:52:00;9;7;
74333;PMS5003;62753;40.394;-80.022;2023-10-19T13:54:25;8;7;
74333;PMS5003;62753;40.394;-80.022;2023-10-19T13:56:50;6;6;
74333;PMS5003;62753;40.394;-80.022;2023-10-19T13:59:16;10;7;
74333;PMS5003;62753;40.394;-80.022;2023-10-19T14:01:41;7;7;
74333;PMS5003;62753;40.394;-80.022;2023-10-19T14:04:06;10;8;
74333;PMS5003;62753;40.394;-80.022;2023-10-19T14:06:31;6;6;
74333;PMS5003;62753;40.394;-80.022;2023-10-19T14:08:56;6;6;
74333;PMS5003;62753;40.394;-80.022;2023-10-19T14:11:22;8;7;
74333;PMS5003;62753;40.394;-80.022;2023-10-19T14:13:47;5;4;
74333;PMS5003;62753;40.394;-80.022;2023-10-19T14:16:12;6;5;
74333;PMS5003;62753;40.394;-80.022;2023-10-19T14:18:38;7;7;
74333;PMS5003;62753;40.394;-80.022;2023-10-19T14:23:28;7;7;
74333;PMS5003;62753;40.394;-80.022;2023-10-19T14:25:54;7;5;
74333;PMS5003;62753;40.394;-80.022;2023-10-19T14:28:19;8;7;
74333;PMS5003;62753;40.394;-80.022;2023-10-19T14:30:44;7;6;
74333;PMS5003;62753;40.394;-80.022;2023-10-19T14:33:09;4;4;
74333;PMS5003;62753;40.394;-80.022;2023-10-19T14:35:35;6;6;
74333;PMS5003;62753;40.394;-80.022;2023-10-19T14:38:00;7;6;
74333;PMS5003;62753;40.394;-80.022;2023-10-19T14:40:26;5;5;
74333;PMS5003;62753;40.394;-80.022;2023-10-19T14:42:50;5;5;
74333;PMS5003;62753;40.394;-80.022;2023-10-19T14:45:17;5;4;
74333;PMS5003;62753;40.394;-80.022;2023-10-19T14:47:42;4;4;
74333;PMS5003;62753;40.394;-80.022;2023-10-19T14:50:07;5;5;
74333;PMS5003;62753;40.394;-80.022;2023-10-19T14:52:32;4;4;
74333;PMS5003;62753;40.394;-80.022;2023-10-19T14:54:57;6;5;
74333;PMS5003;62753;40.394;-80.022;2023-10-19T14:57:23;5;5;
74333;PMS5003;62753;40.394;-80.022;2023-10-19T14:59:47;7;6;
74333;PMS5003;62753;40.394;-80.022;2023-10-19T15:02:13;5;5;
74333;PMS5003;62753;40.394;-80.022;2023-10-19T15:04:38;5;5;
74333;PMS5003;62753;40.394;-80.022;2023-10-19T15:07:03;7;6;
74333;PMS5003;62753;40.394;-80.022;2023-10-19T15:09:29;4;4;
74333;PMS5003;62753;40.394;-80.022;2023-10-19T15:11:54;8;7;
74333;PMS5003;62753;40.394;-80.022;2023-10-19T15:14:19;6;6;
74333;PMS5003;62753;40.394;-80.022;2023-10-19T15:16:44;7;7;
74333;PMS5003;62753;40.394;-80.022;2023-10-19T15:19:10;8;7;
74333;PMS5003;62753;40.394;-80.022;2023-10-19T15:21:35;6;5;
74333;PMS5003;62753;40.394;-80.022;2023-10-19T15:24:00;7;6;
74333;PMS5003;62753;40.394;-80.022;2023-10-19T15:26:26;7;7;
74333;PMS5003;62753;40.394;-80.022;2023-10-19T15:28:51;7;7;
74333;PMS5003;62753;40.394;-80.022;2023-10-19T15:31:16;6;5;
74333;PMS5003;62753;40.394;-80.022;2023-10-19T15:33:42;9;8;
74333;PMS5003;62753;40.394;-80.022;2023-10-19T15:36:07;5;5;
74333;PMS5003;62753;40.394;-80.022;2023-10-19T15:38:33;10;9;
74333;PMS5003;62753;40.394;-80.022;2023-10-19T15:40:58;7;7;
74333;PMS5003;62753;40.394;-80.022;2023-10-19T15:43:24;6;6;
74333;PMS5003;62753;40.394;-80.022;2023-10-19T15:45:49;9;9;
74333;PMS5003;62753;40.394;-80.022;2023-10-19T15:48:14;6;6;
74333;PMS5003;62753;40.394;-80.022;2023-10-19T15:50:39;8;7;
74333;PMS5003;62753;40.394;-80.022;2023-10-19T15:53:04;6;6;
74333;PMS5003;62753;40.394;-80.022;2023-10-19T15:55:29;9;8;
74333;PMS5003;62753;40.394;-80.022;2023-10-19T15:57:55;7;6;
74333;PMS5003;62753;40.394;-80.022;2023-10-19T16:00:20;5;5;